sensor_id;sensor_type;location;lat;lon;timestamp;P1;durP1;ratioP1;P2;durP2;ratioP2
23159;SDS011;11748;50.844;4.396;2023-08-01T00:01:38;4.50;;;1.40;;
23159;SDS011;11748;50.844;4.396;2023-08-01T00:04:10;2.47;;;1.48;;
23159;SDS011;11748;50.844;4.396;2023-08-01T00:06:42;2.45;;;1.60;;
23159;SDS011;11748;50.844;4.396;2023-08-01T00:09:11;4.47;;;1.73;;
23159;SDS011;11748;50.844;4.396;2023-08-01T00:11:43;4.13;;;1.55;;
23159;SDS011;11748;50.844;4.396;2023-08-01T00:14:12;3.85;;;1.95;;
23159;SDS011;11748;50.844;4.396;2023-08-01T00:16:40;4.78;;;1.52;;
23159;SDS011;11748;50.844;4.396;2023-08-01T00:19:07;2.40;;;1.58;;
23159;SDS011;11748;50.844;4.396;2023-08-01T00:21:36;2.53;;;1.83;;
23159;SDS011;11748;50.844;4.396;2023-08-01T00:24:03;5.80;;;1.95;;
23159;SDS011;11748;50.844;4.396;2023-08-01T00:26:32;3.45;;;2.13;;
23159;SDS011;11748;50.844;4.396;2023-08-01T00:28:59;3.97;;;1.80;;
23159;SDS011;11748;50.844;4.396;2023-08-01T00:31:31;3.72;;;1.73;;
23159;SDS011;11748;50.844;4.396;2023-08-01T00:34:00;6.13;;;2.15;;
23159;SDS011;11748;50.844;4.396;2023-08-01T00:36:31;6.10;;;1.40;;
23159;SDS011;11748;50.844;4.396;2023-08-01T00:38:57;3.88;;;1.90;;
23159;SDS011;11748;50.844;4.396;2023-08-01T00:41:23;3.33;;;1.75;;
23159;SDS011;11748;50.844;4.396;2023-08-01T00:43:49;3.17;;;1.85;;
23159;SDS011;11748;50.844;4.396;2023-08-01T00:46:15;4.28;;;2.13;;
23159;SDS011;11748;50.844;4.396;2023-08-01T00:48:43;4.97;;;1.90;;
23159;SDS011;11748;50.844;4.396;2023-08-01T00:51:12;4.40;;;2.05;;
23159;SDS011;11748;50.844;4.396;2023-08-01T00:53:39;3.80;;;2.70;;
23159;SDS011;11748;50.844;4.396;2023-08-01T00:56:05;3.08;;;1.80;;
23159;SDS011;11748;50.844;4.396;2023-08-01T00:58:32;2.92;;;2.05;;
23159;SDS011;11748;50.844;4.396;2023-08-01T01:00:58;4.68;;;2.53;;
23159;SDS011;11748;50.844;4.396;2023-08-01T01:03:30;5.18;;;2.53;;
23159;SDS011;11748;50.844;4.396;2023-08-01T01:08:47;7.40;;;2.58;;
23159;SDS011;11748;50.844;4.396;2023-08-01T01:11:14;4.45;;;2.55;;
23159;SDS011;11748;50.844;4.396;2023-08-01T01:13:40;5.68;;;2.80;;
23159;SDS011;11748;50.844;4.396;2023-08-01T01:16:07;3.42;;;2.60;;
23159;SDS011;11748;50.844;4.396;2023-08-01T01:18:38;4.85;;;2.35;;
23159;SDS011;11748;50.844;4.396;2023-08-01T01:21:07;6.45;;;3.03;;
23159;SDS011;11748;50.844;4.396;2023-08-01T01:23:33;4.85;;;2.55;;
23159;SDS011;11748;50.844;4.396;2023-08-01T01:26:00;6.03;;;2.70;;
23159;SDS011;11748;50.844;4.396;2023-08-01T01:28:27;6.10;;;3.00;;
23159;SDS011;11748;50.844;4.396;2023-08-01T01:30:56;8.57;;;3.20;;
23159;SDS011;11748;50.844;4.396;2023-08-01T01:33:28;6.70;;;3.08;;
23159;SDS011;11748;50.844;4.396;2023-08-01T01:35:54;6.78;;;3.33;;
23159;SDS011;11748;50.844;4.396;2023-08-01T01:38:22;6.70;;;3.38;;
23159;SDS011;11748;50.844;4.396;2023-08-01T01:43:17;6.65;;;3.60;;
23159;SDS011;11748;50.844;4.396;2023-08-01T01:45:43;7.03;;;3.58;;
23159;SDS011;11748;50.844;4.396;2023-08-01T01:48:11;7.38;;;3.47;;
23159;SDS011;11748;50.844;4.396;2023-08-01T01:50:40;9.93;;;3.53;;
23159;SDS011;11748;50.844;4.396;2023-08-01T01:53:06;8.98;;;3.85;;
23159;SDS011;11748;50.844;4.396;2023-08-01T01:55:35;8.02;;;3.72;;
23159;SDS011;11748;50.844;4.396;2023-08-01T01:58:00;8.32;;;3.58;;
23159;SDS011;11748;50.844;4.396;2023-08-01T02:00:27;7.25;;;3.20;;
23159;SDS011;11748;50.844;4.396;2023-08-01T02:02:54;11.18;;;4.00;;
23159;SDS011;11748;50.844;4.396;2023-08-01T02:05:22;7.07;;;3.58;;
23159;SDS011;11748;50.844;4.396;2023-08-01T02:07:48;7.55;;;3.67;;
23159;SDS011;11748;50.844;4.396;2023-08-01T02:10:15;8.52;;;3.90;;
23159;SDS011;11748;50.844;4.396;2023-08-01T02:12:41;8.77;;;3.47;;
23159;SDS011;11748;50.844;4.396;2023-08-01T02:15:07;9.77;;;4.20;;
23159;SDS011;11748;50.844;4.396;2023-08-01T02:17:33;8.30;;;3.95;;
23159;SDS011;11748;50.844;4.396;2023-08-01T02:19:59;8.02;;;3.67;;
23159;SDS011;11748;50.844;4.396;2023-08-01T02:22:28;7.63;;;3.95;;
23159;SDS011;11748;50.844;4.396;2023-08-01T02:25:00;8.68;;;4.10;;
23159;SDS011;11748;50.844;4.396;2023-08-01T02:27:28;8.48;;;3.92;;
23159;SDS011;11748;50.844;4.396;2023-08-01T02:29:54;7.85;;;3.90;;
23159;SDS011;11748;50.844;4.396;2023-08-01T02:32:23;9.48;;;4.00;;
23159;SDS011;11748;50.844;4.396;2023-08-01T02:34:49;8.90;;;3.92;;
23159;SDS011;11748;50.844;4.396;2023-08-01T02:37:16;7.38;;;4.30;;
23159;SDS011;11748;50.844;4.396;2023-08-01T02:39:41;8.70;;;3.78;;
23159;SDS011;11748;50.844;4.396;2023-08-01T02:42:07;5.80;;;3.92;;
23159;SDS011;11748;50.844;4.396;2023-08-01T02:47:22;7.40;;;4.95;;
23159;SDS011;11748;50.844;4.396;2023-08-01T02:49:51;7.05;;;4.00;;
23159;SDS011;11748;50.844;4.396;2023-08-01T02:52:23;7.20;;;4.57;;
23159;SDS011;11748;50.844;4.396;2023-08-01T02:54:51;10.25;;;5.00;;
23159;SDS011;11748;50.844;4.396;2023-08-01T02:57:19;9.68;;;4.50;;
23159;SDS011;11748;50.844;4.396;2023-08-01T03:02:13;10.98;;;4.88;;
23159;SDS011;11748;50.844;4.396;2023-08-01T03:04:40;10.93;;;5.60;;
23159;SDS011;11748;50.844;4.396;2023-08-01T03:07:12;8.27;;;4.50;;
23159;SDS011;11748;50.844;4.396;2023-08-01T03:09:38;11.05;;;5.78;;
23159;SDS011;11748;50.844;4.396;2023-08-01T03:12:04;9.77;;;5.25;;
23159;SDS011;11748;50.844;4.396;2023-08-01T03:14:33;11.25;;;5.38;;
23159;SDS011;11748;50.844;4.396;2023-08-01T03:17:02;11.30;;;5.68;;
23159;SDS011;11748;50.844;4.396;2023-08-01T03:19:29;12.40;;;5.05;;
23159;SDS011;11748;50.844;4.396;2023-08-01T03:21:55;11.52;;;5.53;;
23159;SDS011;11748;50.844;4.396;2023-08-01T03:24:21;13.77;;;5.82;;
23159;SDS011;11748;50.844;4.396;2023-08-01T03:26:48;13.63;;;6.25;;
23159;SDS011;11748;50.844;4.396;2023-08-01T03:35:16;13.32;;;5.53;;
23159;SDS011;11748;50.844;4.396;2023-08-01T03:37:45;14.50;;;5.40;;
23159;SDS011;11748;50.844;4.396;2023-08-01T03:40:17;11.10;;;5.15;;
23159;SDS011;11748;50.844;4.396;2023-08-01T03:42:46;9.88;;;4.82;;
23159;SDS011;11748;50.844;4.396;2023-08-01T03:45:14;10.15;;;5.25;;
23159;SDS011;11748;50.844;4.396;2023-08-01T03:47:40;10.77;;;5.15;;
23159;SDS011;11748;50.844;4.396;2023-08-01T03:50:12;10.23;;;5.03;;
23159;SDS011;11748;50.844;4.396;2023-08-01T03:55:10;14.38;;;5.93;;
23159;SDS011;11748;50.844;4.396;2023-08-01T03:57:38;8.52;;;5.28;;
23159;SDS011;11748;50.844;4.396;2023-08-01T04:02:42;14.85;;;5.57;;
23159;SDS011;11748;50.844;4.396;2023-08-01T04:05:14;19.15;;;6.25;;
23159;SDS011;11748;50.844;4.396;2023-08-01T04:07:41;17.33;;;5.90;;
23159;SDS011;11748;50.844;4.396;2023-08-01T04:10:07;15.90;;;5.65;;
23159;SDS011;11748;50.844;4.396;2023-08-01T04:12:36;10.65;;;5.57;;
23159;SDS011;11748;50.844;4.396;2023-08-01T04:15:03;17.67;;;6.15;;
23159;SDS011;11748;50.844;4.396;2023-08-01T04:17:32;11.55;;;5.53;;
23159;SDS011;11748;50.844;4.396;2023-08-01T04:20:01;11.85;;;5.70;;
23159;SDS011;11748;50.844;4.396;2023-08-01T04:22:30;13.50;;;5.43;;
23159;SDS011;11748;50.844;4.396;2023-08-01T04:25:02;9.70;;;5.25;;
23159;SDS011;11748;50.844;4.396;2023-08-01T04:27:29;15.20;;;5.65;;
23159;SDS011;11748;50.844;4.396;2023-08-01T04:30:00;14.95;;;6.43;;
23159;SDS011;11748;50.844;4.396;2023-08-01T04:32:29;10.65;;;5.28;;
23159;SDS011;11748;50.844;4.396;2023-08-01T04:34:58;15.05;;;5.72;;
23159;SDS011;11748;50.844;4.396;2023-08-01T04:37:27;15.57;;;5.63;;
23159;SDS011;11748;50.844;4.396;2023-08-01T04:39:56;14.35;;;5.80;;
23159;SDS011;11748;50.844;4.396;2023-08-01T04:42:22;12.93;;;5.50;;
23159;SDS011;11748;50.844;4.396;2023-08-01T04:44:54;19.30;;;6.05;;
23159;SDS011;11748;50.844;4.396;2023-08-01T04:47:21;14.77;;;5.57;;
23159;SDS011;11748;50.844;4.396;2023-08-01T04:49:52;17.15;;;6.20;;
23159;SDS011;11748;50.844;4.396;2023-08-01T04:54:50;13.75;;;5.75;;
23159;SDS011;11748;50.844;4.396;2023-08-01T04:57:31;12.70;;;6.30;;
23159;SDS011;11748;50.844;4.396;2023-08-01T05:00:04;13.73;;;6.25;;
23159;SDS011;11748;50.844;4.396;2023-08-01T05:02:34;12.60;;;6.00;;
23159;SDS011;11748;50.844;4.396;2023-08-01T05:05:02;15.52;;;5.88;;
23159;SDS011;11748;50.844;4.396;2023-08-01T05:07:30;13.57;;;5.80;;
23159;SDS011;11748;50.844;4.396;2023-08-01T05:09:59;13.60;;;6.20;;
23159;SDS011;11748;50.844;4.396;2023-08-01T05:12:30;14.38;;;5.75;;
23159;SDS011;11748;50.844;4.396;2023-08-01T05:15:12;12.07;;;5.57;;
23159;SDS011;11748;50.844;4.396;2023-08-01T05:17:43;13.10;;;5.35;;
23159;SDS011;11748;50.844;4.396;2023-08-01T05:20:10;19.45;;;5.22;;
23159;SDS011;11748;50.844;4.396;2023-08-01T05:22:39;9.82;;;5.00;;
23159;SDS011;11748;50.844;4.396;2023-08-01T05:25:12;15.27;;;5.60;;
23159;SDS011;11748;50.844;4.396;2023-08-01T05:27:41;16.75;;;5.53;;
23159;SDS011;11748;50.844;4.396;2023-08-01T05:30:07;11.43;;;5.15;;
23159;SDS011;11748;50.844;4.396;2023-08-01T05:32:36;13.25;;;5.70;;
23159;SDS011;11748;50.844;4.396;2023-08-01T05:37:36;16.15;;;5.60;;
23159;SDS011;11748;50.844;4.396;2023-08-01T05:40:05;10.88;;;5.28;;
23159;SDS011;11748;50.844;4.396;2023-08-01T05:45:03;13.05;;;5.53;;
23159;SDS011;11748;50.844;4.396;2023-08-01T05:47:31;14.02;;;6.18;;
23159;SDS011;11748;50.844;4.396;2023-08-01T05:50:00;9.05;;;4.68;;
23159;SDS011;11748;50.844;4.396;2023-08-01T05:52:27;16.10;;;5.78;;
23159;SDS011;11748;50.844;4.396;2023-08-01T05:54:55;12.80;;;5.30;;
23159;SDS011;11748;50.844;4.396;2023-08-01T05:57:22;12.23;;;5.07;;
23159;SDS011;11748;50.844;4.396;2023-08-01T05:59:48;21.88;;;6.05;;
23159;SDS011;11748;50.844;4.396;2023-08-01T06:02:15;16.33;;;6.00;;
23159;SDS011;11748;50.844;4.396;2023-08-01T06:04:47;14.35;;;5.55;;
23159;SDS011;11748;50.844;4.396;2023-08-01T06:07:13;13.27;;;5.05;;
23159;SDS011;11748;50.844;4.396;2023-08-01T06:09:39;14.43;;;4.88;;
23159;SDS011;11748;50.844;4.396;2023-08-01T06:12:06;15.13;;;5.20;;
23159;SDS011;11748;50.844;4.396;2023-08-01T06:14:34;17.33;;;5.50;;
23159;SDS011;11748;50.844;4.396;2023-08-01T06:17:12;11.05;;;4.95;;
23159;SDS011;11748;50.844;4.396;2023-08-01T06:19:39;12.00;;;5.20;;
23159;SDS011;11748;50.844;4.396;2023-08-01T06:22:07;9.38;;;5.15;;
23159;SDS011;11748;50.844;4.396;2023-08-01T06:24:36;13.48;;;5.03;;
23159;SDS011;11748;50.844;4.396;2023-08-01T06:29:34;12.82;;;5.05;;
23159;SDS011;11748;50.844;4.396;2023-08-01T06:34:32;14.77;;;5.55;;
23159;SDS011;11748;50.844;4.396;2023-08-01T06:39:42;12.45;;;4.35;;
23159;SDS011;11748;50.844;4.396;2023-08-01T06:42:11;10.48;;;4.72;;
23159;SDS011;11748;50.844;4.396;2023-08-01T06:44:40;8.98;;;4.20;;
23159;SDS011;11748;50.844;4.396;2023-08-01T06:47:11;11.82;;;4.72;;
23159;SDS011;11748;50.844;4.396;2023-08-01T06:52:12;15.02;;;4.82;;
23159;SDS011;11748;50.844;4.396;2023-08-01T06:54:55;14.77;;;5.28;;
23159;SDS011;11748;50.844;4.396;2023-08-01T06:57:27;12.65;;;4.97;;
23159;SDS011;11748;50.844;4.396;2023-08-01T07:00:02;12.10;;;4.82;;
23159;SDS011;11748;50.844;4.396;2023-08-01T07:02:30;13.93;;;5.32;;
23159;SDS011;11748;50.844;4.396;2023-08-01T07:04:58;12.18;;;5.25;;
23159;SDS011;11748;50.844;4.396;2023-08-01T07:07:30;11.65;;;5.63;;
23159;SDS011;11748;50.844;4.396;2023-08-01T07:09:59;10.25;;;5.05;;
23159;SDS011;11748;50.844;4.396;2023-08-01T07:12:31;11.73;;;4.47;;
23159;SDS011;11748;50.844;4.396;2023-08-01T07:14:59;13.05;;;4.20;;
23159;SDS011;11748;50.844;4.396;2023-08-01T07:17:27;14.80;;;5.22;;
23159;SDS011;11748;50.844;4.396;2023-08-01T07:19:56;12.13;;;4.05;;
23159;SDS011;11748;50.844;4.396;2023-08-01T07:22:39;10.43;;;4.18;;
23159;SDS011;11748;50.844;4.396;2023-08-01T07:25:07;12.48;;;5.15;;
23159;SDS011;11748;50.844;4.396;2023-08-01T07:27:39;12.25;;;4.10;;
23159;SDS011;11748;50.844;4.396;2023-08-01T07:30:07;12.60;;;4.55;;
23159;SDS011;11748;50.844;4.396;2023-08-01T07:35:04;13.88;;;4.07;;
23159;SDS011;11748;50.844;4.396;2023-08-01T07:37:34;9.40;;;4.22;;
23159;SDS011;11748;50.844;4.396;2023-08-01T07:40:04;14.30;;;6.15;;
23159;SDS011;11748;50.844;4.396;2023-08-01T07:42:36;8.32;;;4.18;;
23159;SDS011;11748;50.844;4.396;2023-08-01T07:45:02;11.10;;;4.10;;
23159;SDS011;11748;50.844;4.396;2023-08-01T07:47:29;10.40;;;4.55;;
23159;SDS011;11748;50.844;4.396;2023-08-01T07:49:55;10.88;;;4.63;;
23159;SDS011;11748;50.844;4.396;2023-08-01T07:52:25;8.65;;;4.03;;
23159;SDS011;11748;50.844;4.396;2023-08-01T07:54:54;9.60;;;3.50;;
23159;SDS011;11748;50.844;4.396;2023-08-01T07:57:25;11.30;;;3.58;;
23159;SDS011;11748;50.844;4.396;2023-08-01T07:59:51;9.93;;;4.00;;
23159;SDS011;11748;50.844;4.396;2023-08-01T08:02:18;9.55;;;4.20;;
23159;SDS011;11748;50.844;4.396;2023-08-01T08:04:45;8.10;;;3.70;;
23159;SDS011;11748;50.844;4.396;2023-08-01T08:07:10;9.43;;;3.38;;
23159;SDS011;11748;50.844;4.396;2023-08-01T08:09:36;12.55;;;3.95;;
23159;SDS011;11748;50.844;4.396;2023-08-01T08:12:03;10.98;;;3.50;;
23159;SDS011;11748;50.844;4.396;2023-08-01T08:14:31;11.07;;;3.70;;
23159;SDS011;11748;50.844;4.396;2023-08-01T08:16:57;15.10;;;4.28;;
23159;SDS011;11748;50.844;4.396;2023-08-01T08:19:23;8.23;;;3.03;;
23159;SDS011;11748;50.844;4.396;2023-08-01T08:21:51;7.95;;;3.10;;
23159;SDS011;11748;50.844;4.396;2023-08-01T08:24:18;10.55;;;3.42;;
23159;SDS011;11748;50.844;4.396;2023-08-01T08:26:44;8.63;;;2.95;;
23159;SDS011;11748;50.844;4.396;2023-08-01T08:29:11;9.07;;;3.30;;
23159;SDS011;11748;50.844;4.396;2023-08-01T08:31:37;8.20;;;3.08;;
23159;SDS011;11748;50.844;4.396;2023-08-01T08:34:07;8.75;;;2.80;;
23159;SDS011;11748;50.844;4.396;2023-08-01T08:36:32;8.43;;;3.20;;
23159;SDS011;11748;50.844;4.396;2023-08-01T08:39:04;7.68;;;3.65;;
23159;SDS011;11748;50.844;4.396;2023-08-01T08:41:35;9.65;;;3.47;;
23159;SDS011;11748;50.844;4.396;2023-08-01T08:44:19;16.40;;;4.13;;
23159;SDS011;11748;50.844;4.396;2023-08-01T08:46:50;7.60;;;3.13;;
23159;SDS011;11748;50.844;4.396;2023-08-01T08:49:22;9.25;;;2.88;;
23159;SDS011;11748;50.844;4.396;2023-08-01T08:51:52;9.38;;;3.05;;
23159;SDS011;11748;50.844;4.396;2023-08-01T08:54:21;8.43;;;3.38;;
23159;SDS011;11748;50.844;4.396;2023-08-01T08:56:54;7.25;;;2.67;;
23159;SDS011;11748;50.844;4.396;2023-08-01T08:59:21;6.97;;;2.33;;
23159;SDS011;11748;50.844;4.396;2023-08-01T09:01:49;7.18;;;2.22;;
23159;SDS011;11748;50.844;4.396;2023-08-01T09:04:20;6.88;;;2.33;;
23159;SDS011;11748;50.844;4.396;2023-08-01T09:06:51;8.65;;;2.38;;
23159;SDS011;11748;50.844;4.396;2023-08-01T09:09:25;8.63;;;2.80;;
23159;SDS011;11748;50.844;4.396;2023-08-01T09:11:55;8.27;;;2.58;;
23159;SDS011;11748;50.844;4.396;2023-08-01T09:14:23;9.75;;;2.72;;
23159;SDS011;11748;50.844;4.396;2023-08-01T09:16:52;8.13;;;2.75;;
23159;SDS011;11748;50.844;4.396;2023-08-01T09:19:18;4.85;;;2.75;;
23159;SDS011;11748;50.844;4.396;2023-08-01T09:21:48;8.90;;;3.28;;
23159;SDS011;11748;50.844;4.396;2023-08-01T09:29:30;5.13;;;2.30;;
23159;SDS011;11748;50.844;4.396;2023-08-01T09:32:10;6.20;;;1.85;;
23159;SDS011;11748;50.844;4.396;2023-08-01T09:34:40;6.70;;;2.17;;
23159;SDS011;11748;50.844;4.396;2023-08-01T09:37:12;6.03;;;2.03;;
23159;SDS011;11748;50.844;4.396;2023-08-01T09:39:39;7.28;;;1.98;;
23159;SDS011;11748;50.844;4.396;2023-08-01T09:42:09;4.22;;;1.73;;
23159;SDS011;11748;50.844;4.396;2023-08-01T09:44:36;5.82;;;2.20;;
23159;SDS011;11748;50.844;4.396;2023-08-01T09:47:04;4.85;;;1.70;;
23159;SDS011;11748;50.844;4.396;2023-08-01T09:49:46;5.53;;;1.88;;
23159;SDS011;11748;50.844;4.396;2023-08-01T09:52:25;5.72;;;1.88;;
23159;SDS011;11748;50.844;4.396;2023-08-01T09:57:22;7.93;;;3.75;;
23159;SDS011;11748;50.844;4.396;2023-08-01T10:00:06;7.13;;;2.45;;
23159;SDS011;11748;50.844;4.396;2023-08-01T10:02:37;5.55;;;1.70;;
23159;SDS011;11748;50.844;4.396;2023-08-01T10:05:11;4.77;;;1.53;;
23159;SDS011;11748;50.844;4.396;2023-08-01T10:07:43;6.65;;;2.05;;
23159;SDS011;11748;50.844;4.396;2023-08-01T10:13:02;6.63;;;2.00;;
23159;SDS011;11748;50.844;4.396;2023-08-01T10:15:36;6.00;;;1.92;;
23159;SDS011;11748;50.844;4.396;2023-08-01T10:18:03;5.22;;;1.85;;
23159;SDS011;11748;50.844;4.396;2023-08-01T10:20:29;6.72;;;1.98;;
23159;SDS011;11748;50.844;4.396;2023-08-01T10:22:56;3.33;;;1.45;;
23159;SDS011;11748;50.844;4.396;2023-08-01T10:25:29;5.68;;;1.88;;
23159;SDS011;11748;50.844;4.396;2023-08-01T10:28:00;5.55;;;1.60;;
23159;SDS011;11748;50.844;4.396;2023-08-01T10:30:28;4.53;;;1.90;;
23159;SDS011;11748;50.844;4.396;2023-08-01T10:33:11;5.53;;;1.92;;
23159;SDS011;11748;50.844;4.396;2023-08-01T10:35:40;4.57;;;1.60;;
23159;SDS011;11748;50.844;4.396;2023-08-01T10:38:06;3.35;;;1.40;;
23159;SDS011;11748;50.844;4.396;2023-08-01T10:40:37;3.30;;;1.42;;
23159;SDS011;11748;50.844;4.396;2023-08-01T10:43:21;4.43;;;1.85;;
23159;SDS011;11748;50.844;4.396;2023-08-01T10:46:00;5.93;;;1.27;;
23159;SDS011;11748;50.844;4.396;2023-08-01T10:48:35;4.85;;;1.60;;
23159;SDS011;11748;50.844;4.396;2023-08-01T10:51:13;6.10;;;1.50;;
23159;SDS011;11748;50.844;4.396;2023-08-01T10:53:39;4.47;;;1.60;;
23159;SDS011;11748;50.844;4.396;2023-08-01T10:56:05;7.10;;;1.63;;
23159;SDS011;11748;50.844;4.396;2023-08-01T10:58:36;5.68;;;1.55;;
23159;SDS011;11748;50.844;4.396;2023-08-01T11:01:02;6.43;;;1.52;;
23159;SDS011;11748;50.844;4.396;2023-08-01T11:06:13;3.92;;;1.70;;
23159;SDS011;11748;50.844;4.396;2023-08-01T11:08:40;5.43;;;1.63;;
23159;SDS011;11748;50.844;4.396;2023-08-01T11:11:11;5.60;;;1.45;;
23159;SDS011;11748;50.844;4.396;2023-08-01T11:13:40;3.40;;;1.40;;
23159;SDS011;11748;50.844;4.396;2023-08-01T11:16:10;4.82;;;1.52;;
23159;SDS011;11748;50.844;4.396;2023-08-01T11:18:46;6.53;;;1.70;;
23159;SDS011;11748;50.844;4.396;2023-08-01T11:26:57;4.28;;;1.80;;
23159;SDS011;11748;50.844;4.396;2023-08-01T11:29:29;5.23;;;1.43;;
23159;SDS011;11748;50.844;4.396;2023-08-01T11:31:59;5.68;;;1.60;;
23159;SDS011;11748;50.844;4.396;2023-08-01T11:34:28;7.38;;;1.58;;
23159;SDS011;11748;50.844;4.396;2023-08-01T11:37:05;4.15;;;1.23;;
23159;SDS011;11748;50.844;4.396;2023-08-01T11:39:37;4.60;;;1.67;;
23159;SDS011;11748;50.844;4.396;2023-08-01T11:42:04;4.25;;;1.08;;
23159;SDS011;11748;50.844;4.396;2023-08-01T11:44:36;4.07;;;1.13;;
23159;SDS011;11748;50.844;4.396;2023-08-01T11:49:48;4.95;;;1.20;;
23159;SDS011;11748;50.844;4.396;2023-08-01T11:52:28;7.13;;;1.58;;
23159;SDS011;11748;50.844;4.396;2023-08-01T11:54:56;6.88;;;1.27;;
23159;SDS011;11748;50.844;4.396;2023-08-01T11:57:24;4.10;;;1.13;;
23159;SDS011;11748;50.844;4.396;2023-08-01T11:59:54;4.15;;;0.88;;
23159;SDS011;11748;50.844;4.396;2023-08-01T12:02:24;3.38;;;1.00;;
23159;SDS011;11748;50.844;4.396;2023-08-01T12:04:58;3.55;;;1.25;;
23159;SDS011;11748;50.844;4.396;2023-08-01T12:07:27;5.55;;;1.65;;
23159;SDS011;11748;50.844;4.396;2023-08-01T12:16:01;4.15;;;1.27;;
23159;SDS011;11748;50.844;4.396;2023-08-01T12:18:27;5.15;;;1.45;;
23159;SDS011;11748;50.844;4.396;2023-08-01T12:20:55;5.80;;;1.33;;
23159;SDS011;11748;50.844;4.396;2023-08-01T12:26:12;4.40;;;1.30;;
23159;SDS011;11748;50.844;4.396;2023-08-01T12:28:40;3.92;;;1.45;;
23159;SDS011;11748;50.844;4.396;2023-08-01T12:31:05;4.40;;;1.00;;
23159;SDS011;11748;50.844;4.396;2023-08-01T12:33:32;3.67;;;1.35;;
23159;SDS011;11748;50.844;4.396;2023-08-01T12:36:00;4.15;;;1.17;;
23159;SDS011;11748;50.844;4.396;2023-08-01T12:38:27;6.00;;;1.45;;
23159;SDS011;11748;50.844;4.396;2023-08-01T12:40:52;4.63;;;1.20;;
23159;SDS011;11748;50.844;4.396;2023-08-01T12:43:19;6.53;;;1.25;;
23159;SDS011;11748;50.844;4.396;2023-08-01T12:45:46;4.82;;;1.30;;
23159;SDS011;11748;50.844;4.396;2023-08-01T12:48:13;4.90;;;1.17;;
23159;SDS011;11748;50.844;4.396;2023-08-01T12:50:44;5.25;;;1.55;;
23159;SDS011;11748;50.844;4.396;2023-08-01T12:53:14;4.38;;;1.30;;
23159;SDS011;11748;50.844;4.396;2023-08-01T12:55:49;4.88;;;1.17;;
23159;SDS011;11748;50.844;4.396;2023-08-01T12:58:17;3.65;;;1.23;;
23159;SDS011;11748;50.844;4.396;2023-08-01T13:00:48;3.92;;;1.25;;
23159;SDS011;11748;50.844;4.396;2023-08-01T13:08:43;5.68;;;1.50;;
23159;SDS011;11748;50.844;4.396;2023-08-01T13:11:13;5.20;;;2.45;;
23159;SDS011;11748;50.844;4.396;2023-08-01T13:13:47;3.42;;;2.25;;
23159;SDS011;11748;50.844;4.396;2023-08-01T13:16:19;3.55;;;1.42;;
23159;SDS011;11748;50.844;4.396;2023-08-01T13:18:47;3.72;;;1.05;;
23159;SDS011;11748;50.844;4.396;2023-08-01T13:21:14;4.13;;;1.30;;
23159;SDS011;11748;50.844;4.396;2023-08-01T13:23:40;4.03;;;1.33;;
23159;SDS011;11748;50.844;4.396;2023-08-01T13:26:12;5.90;;;1.05;;
23159;SDS011;11748;50.844;4.396;2023-08-01T13:28:41;4.25;;;1.23;;
23159;SDS011;11748;50.844;4.396;2023-08-01T13:31:07;8.95;;;1.50;;
23159;SDS011;11748;50.844;4.396;2023-08-01T13:33:33;3.28;;;1.25;;
23159;SDS011;11748;50.844;4.396;2023-08-01T13:38:31;5.00;;;1.50;;
23159;SDS011;11748;50.844;4.396;2023-08-01T13:41:00;8.93;;;1.40;;
23159;SDS011;11748;50.844;4.396;2023-08-01T13:43:27;4.10;;;1.40;;
23159;SDS011;11748;50.844;4.396;2023-08-01T13:45:59;5.57;;;1.30;;
23159;SDS011;11748;50.844;4.396;2023-08-01T13:48:25;2.67;;;1.25;;
23159;SDS011;11748;50.844;4.396;2023-08-01T13:50:57;5.18;;;1.73;;
23159;SDS011;11748;50.844;4.396;2023-08-01T13:55:55;4.40;;;1.17;;
23159;SDS011;11748;50.844;4.396;2023-08-01T13:58:27;6.05;;;1.02;;
23159;SDS011;11748;50.844;4.396;2023-08-01T14:00:55;5.00;;;1.23;;
23159;SDS011;11748;50.844;4.396;2023-08-01T14:03:30;5.47;;;1.83;;
23159;SDS011;11748;50.844;4.396;2023-08-01T14:08:42;9.40;;;1.40;;
23159;SDS011;11748;50.844;4.396;2023-08-01T14:13:38;3.67;;;1.40;;
23159;SDS011;11748;50.844;4.396;2023-08-01T14:16:05;4.57;;;0.95;;
23159;SDS011;11748;50.844;4.396;2023-08-01T14:18:31;5.45;;;1.13;;
23159;SDS011;11748;50.844;4.396;2023-08-01T14:23:30;3.90;;;0.93;;
23159;SDS011;11748;50.844;4.396;2023-08-01T14:28:25;6.03;;;1.00;;
23159;SDS011;11748;50.844;4.396;2023-08-01T14:30:52;2.60;;;0.93;;
23159;SDS011;11748;50.844;4.396;2023-08-01T14:35:50;3.15;;;0.90;;
23159;SDS011;11748;50.844;4.396;2023-08-01T14:38:16;2.90;;;0.95;;
23159;SDS011;11748;50.844;4.396;2023-08-01T14:40:45;7.38;;;1.35;;
23159;SDS011;11748;50.844;4.396;2023-08-01T14:45:41;5.25;;;1.10;;
23159;SDS011;11748;50.844;4.396;2023-08-01T14:50:38;4.97;;;1.50;;
23159;SDS011;11748;50.844;4.396;2023-08-01T14:53:05;3.97;;;1.40;;
23159;SDS011;11748;50.844;4.396;2023-08-01T14:55:35;3.83;;;1.20;;
23159;SDS011;11748;50.844;4.396;2023-08-01T15:01:00;5.05;;;1.40;;
23159;SDS011;11748;50.844;4.396;2023-08-01T15:03:37;5.40;;;1.25;;
23159;SDS011;11748;50.844;4.396;2023-08-01T15:06:12;3.45;;;1.17;;
23159;SDS011;11748;50.844;4.396;2023-08-01T15:08:41;6.35;;;1.85;;
23159;SDS011;11748;50.844;4.396;2023-08-01T15:11:10;5.85;;;1.55;;
23159;SDS011;11748;50.844;4.396;2023-08-01T15:13:39;4.18;;;1.60;;
23159;SDS011;11748;50.844;4.396;2023-08-01T15:16:11;6.70;;;1.48;;
23159;SDS011;11748;50.844;4.396;2023-08-01T15:18:37;5.15;;;1.58;;
23159;SDS011;11748;50.844;4.396;2023-08-01T15:21:03;6.47;;;1.75;;
23159;SDS011;11748;50.844;4.396;2023-08-01T15:23:31;6.97;;;2.10;;
23159;SDS011;11748;50.844;4.396;2023-08-01T15:26:00;6.75;;;1.63;;
23159;SDS011;11748;50.844;4.396;2023-08-01T15:28:28;4.72;;;1.77;;
23159;SDS011;11748;50.844;4.396;2023-08-01T15:31:04;4.78;;;1.92;;
23159;SDS011;11748;50.844;4.396;2023-08-01T15:33:35;10.32;;;1.77;;
23159;SDS011;11748;50.844;4.396;2023-08-01T15:36:07;9.45;;;2.10;;
23159;SDS011;11748;50.844;4.396;2023-08-01T15:38:37;5.93;;;1.65;;
23159;SDS011;11748;50.844;4.396;2023-08-01T15:41:07;8.68;;;1.88;;
23159;SDS011;11748;50.844;4.396;2023-08-01T15:43:42;7.63;;;1.90;;
23159;SDS011;11748;50.844;4.396;2023-08-01T15:46:11;8.20;;;2.03;;
23159;SDS011;11748;50.844;4.396;2023-08-01T15:48:40;5.93;;;1.88;;
23159;SDS011;11748;50.844;4.396;2023-08-01T15:51:06;7.80;;;2.08;;
23159;SDS011;11748;50.844;4.396;2023-08-01T15:53:35;7.25;;;1.90;;
23159;SDS011;11748;50.844;4.396;2023-08-01T15:56:02;8.15;;;1.85;;
23159;SDS011;11748;50.844;4.396;2023-08-01T15:58:33;9.02;;;2.28;;
23159;SDS011;11748;50.844;4.396;2023-08-01T16:01:01;8.88;;;2.40;;
23159;SDS011;11748;50.844;4.396;2023-08-01T16:03:27;8.73;;;2.13;;
23159;SDS011;11748;50.844;4.396;2023-08-01T16:05:54;5.93;;;2.00;;
23159;SDS011;11748;50.844;4.396;2023-08-01T16:08:21;6.13;;;1.88;;
23159;SDS011;11748;50.844;4.396;2023-08-01T16:10:47;10.80;;;2.40;;
23159;SDS011;11748;50.844;4.396;2023-08-01T16:13:14;11.20;;;2.25;;
23159;SDS011;11748;50.844;4.396;2023-08-01T16:15:41;7.78;;;2.00;;
23159;SDS011;11748;50.844;4.396;2023-08-01T16:18:09;7.00;;;1.92;;
23159;SDS011;11748;50.844;4.396;2023-08-01T16:20:49;8.48;;;2.03;;
23159;SDS011;11748;50.844;4.396;2023-08-01T16:23:15;6.65;;;1.67;;
23159;SDS011;11748;50.844;4.396;2023-08-01T16:25:42;7.10;;;2.10;;
23159;SDS011;11748;50.844;4.396;2023-08-01T16:28:10;6.72;;;2.55;;
23159;SDS011;11748;50.844;4.396;2023-08-01T16:30:39;7.20;;;2.03;;
23159;SDS011;11748;50.844;4.396;2023-08-01T16:33:11;11.05;;;2.15;;
23159;SDS011;11748;50.844;4.396;2023-08-01T16:35:39;9.82;;;2.20;;
23159;SDS011;11748;50.844;4.396;2023-08-01T16:38:05;6.30;;;1.80;;